Time;durP1;ratioP1;P1;durP2;ratioP2;P2;SDS_P1;SDS_P2;PMS_P1;PMS_P2;Temp;Humidity;BMP_temperature;BMP_pressure;BME280_temperature;BME280_humidity;BME280_pressure;Samples;Min_cycle;Max_cycle;Signal;HPM_P1;HPM_P2
2023/12/15 00:00:38;;;;;;;;;;;9.10;99.90;;;;;;4999242;28;19964;-85
2023/12/15 00:03:03;;;;;;;;;;;9.10;99.90;;;;;;5002459;28;19953;-85
2023/12/15 00:05:29;;;;;;;;;;;9.10;99.90;;;;;;4994860;28;19917;-86
2023/12/15 00:07:54;;;;;;;;;;;9.10;99.90;;;;;;5014296;28;19947;-85
2023/12/15 00:10:20;;;;;;;;;;;9.10;99.90;;;;;;5006888;28;20435;-85
2023/12/15 00:12:45;;;;;;;;;;;9.10;99.90;;;;;;5003706;28;19913;-86
2023/12/15 00:15:11;;;;;;;;;;;9.10;99.90;;;;;;5000324;28;20334;-86
2023/12/15 00:17:36;;;;;;;;;;;9.10;99.90;;;;;;4997239;28;20025;-85
2023/12/15 00:20:03;;;;;;;;;;;9.10;99.90;;;;;;4995575;28;19965;-85
2023/12/15 00:22:29;;;;;;;;;;;9.10;99.90;;;;;;5007015;28;19910;-86
2023/12/15 00:24:54;;;;;;;;;;;9.10;99.90;;;;;;5003565;28;20296;-85
2023/12/15 00:27:19;;;;;;;;;;;9.10;99.90;;;;;;4999698;28;19910;-86
2023/12/15 00:29:45;;;;;;;;;;;9.10;99.90;;;;;;5001933;28;19914;-85
2023/12/15 00:32:10;;;;;;;;;;;9.10;99.90;;;;;;5001789;28;19917;-85
2023/12/15 00:34:36;;;;;;;;;;;9.10;99.90;;;;;;5009826;28;20028;-85
2023/12/15 00:37:01;;;;;;;;;;;9.00;99.90;;;;;;4999176;28;19910;-85
2023/12/15 00:39:27;;;;;;;;;;;9.10;99.90;;;;;;4998723;28;19910;-85
2023/12/15 00:41:52;;;;;;;;;;;9.00;99.90;;;;;;4999889;28;19918;-86
2023/12/15 00:44:18;;;;;;;;;;;9.00;99.90;;;;;;5002641;28;20541;-86
2023/12/15 00:46:43;;;;;;;;;;;9.00;99.90;;;;;;5007074;28;19919;-84
2023/12/15 00:49:09;;;;;;;;;;;9.00;99.90;;;;;;5000856;28;20004;-86
2023/12/15 00:51:34;;;;;;;;;;;9.00;99.90;;;;;;5004025;28;19940;-85
2023/12/15 00:54:00;;;;;;;;;;;9.00;99.90;;;;;;4999347;28;19988;-86
2023/12/15 00:56:25;;;;;;;;;;;9.00;99.90;;;;;;4998479;28;19910;-84
2023/12/15 00:58:51;;;;;;;;;;;9.00;99.90;;;;;;5005477;28;19976;-86
2023/12/15 01:01:16;;;;;;;;;;;9.00;99.90;;;;;;5015411;28;19925;-86
2023/12/15 01:03:42;;;;;;;;;;;9.00;99.90;;;;;;5000128;28;19968;-86
2023/12/15 01:06:07;;;;;;;;;;;9.00;99.90;;;;;;4996858;28;20001;-86
2023/12/15 01:08:32;;;;;;;;;;;9.00;99.90;;;;;;4992619;28;20012;-88
2023/12/15 01:10:58;;;;;;;;;;;9.00;99.90;;;;;;4997055;28;20291;-85
2023/12/15 01:13:23;;;;;;;;;;;9.00;99.90;;;;;;5003051;28;20391;-86
2023/12/15 01:15:49;;;;;;;;;;;9.00;99.90;;;;;;5004031;28;19916;-86
2023/12/15 01:18:15;;;;;;;;;;;9.00;99.90;;;;;;4997330;28;20291;-85
2023/12/15 01:20:40;;;;;;;;;;;9.00;99.90;;;;;;4994932;28;20541;-85
2023/12/15 01:23:05;;;;;;;;;;;9.00;99.90;;;;;;5001405;28;19996;-85
2023/12/15 01:25:31;;;;;;;;;;;9.00;99.90;;;;;;5004923;28;19920;-85
2023/12/15 01:27:56;;;;;;;;;;;9.00;99.90;;;;;;4997521;28;19979;-86
2023/12/15 01:30:22;;;;;;;;;;;9.00;99.90;;;;;;5000258;28;19913;-86
2023/12/15 01:32:47;;;;;;;;;;;9.00;99.90;;;;;;4994082;28;19910;-85
2023/12/15 01:35:13;;;;;;;;;;;9.00;99.90;;;;;;5010317;28;19913;-86
2023/12/15 01:37:38;;;;;;;;;;;9.00;99.90;;;;;;5003554;28;20372;-85
2023/12/15 01:40:04;;;;;;;;;;;9.00;99.90;;;;;;4996857;28;19914;-86
2023/12/15 01:42:29;;;;;;;;;;;9.00;99.90;;;;;;4996523;28;19916;-85
2023/12/15 01:44:55;;;;;;;;;;;9.00;99.90;;;;;;4994677;28;20593;-86
2023/12/15 01:47:24;;;;;;;;;;;9.00;99.90;;;;;;5002521;28;19936;-86
2023/12/15 01:49:50;;;;;;;;;;;9.00;99.90;;;;;;4998356;28;19949;-86
2023/12/15 01:52:15;;;;;;;;;;;9.00;99.90;;;;;;4998191;28;19960;-85
2023/12/15 01:54:41;;;;;;;;;;;9.00;99.90;;;;;;4994130;28;19914;-86
2023/12/15 01:57:07;;;;;;;;;;;9.00;99.90;;;;;;4997032;28;19917;-85
2023/12/15 01:59:42;;;;;;;;;;;9.00;99.90;;;;;;4993838;28;20386;-85
2023/12/15 02:02:07;;;;;;;;;;;9.00;99.90;;;;;;5008764;28;19992;-86
2023/12/15 02:04:33;;;;;;;;;;;9.00;99.90;;;;;;5008534;28;20007;-85
2023/12/15 02:06:58;;;;;;;;;;;9.00;99.90;;;;;;5003156;28;19917;-87
2023/12/15 02:09:24;;;;;;;;;;;9.00;99.90;;;;;;5005040;28;19952;-85
2023/12/15 02:11:49;;;;;;;;;;;9.00;99.90;;;;;;5001202;28;19997;-86
2023/12/15 02:14:15;;;;;;;;;;;9.00;99.90;;;;;;5002107;28;19914;-85
2023/12/15 02:16:40;;;;;;;;;;;9.00;99.90;;;;;;5009312;28;19910;-85
2023/12/15 02:19:06;;;;;;;;;;;9.00;99.90;;;;;;4999930;28;20009;-86
2023/12/15 02:21:32;;;;;;;;;;;9.00;99.90;;;;;;5006367;28;19924;-85
2023/12/15 02:23:58;;;;;;;;;;;9.00;99.90;;;;;;5002772;28;19920;-86
2023/12/15 02:26:23;;;;;;;;;;;9.00;99.90;;;;;;5011839;28;20161;-85
2023/12/15 02:28:49;;;;;;;;;;;9.00;99.90;;;;;;5005481;28;19914;-85
2023/12/15 02:31:14;;;;;;;;;;;9.00;99.90;;;;;;5012901;28;20376;-85
2023/12/15 02:33:39;;;;;;;;;;;9.00;99.90;;;;;;5006966;28;20024;-85
2023/12/15 02:36:05;;;;;;;;;;;9.00;99.90;;;;;;4999658;28;19909;-85
2023/12/15 02:38:31;;;;;;;;;;;9.00;99.90;;;;;;5011165;28;20056;-86
2023/12/15 02:40:56;;;;;;;;;;;9.00;99.90;;;;;;5005973;28;20402;-86
2023/12/15 02:43:22;;;;;;;;;;;9.00;99.90;;;;;;5001910;28;19909;-85
2023/12/15 02:45:47;;;;;;;;;;;9.00;99.90;;;;;;5002186;28;19929;-85
2023/12/15 02:48:13;;;;;;;;;;;9.00;99.90;;;;;;5001779;28;19910;-85
2023/12/15 02:50:38;;;;;;;;;;;9.00;99.90;;;;;;5004543;28;19910;-85
2023/12/15 02:53:03;;;;;;;;;;;9.00;99.90;;;;;;5009967;28;19941;-85
2023/12/15 02:55:29;;;;;;;;;;;9.00;99.90;;;;;;5011001;28;20331;-85
2023/12/15 02:57:54;;;;;;;;;;;9.00;99.90;;;;;;5004043;28;19940;-85
2023/12/15 03:00:20;;;;;;;;;;;9.00;99.90;;;;;;5002062;28;20458;-85
2023/12/15 03:02:45;;;;;;;;;;;9.00;99.90;;;;;;5006397;28;19913;-84
2023/12/15 03:05:11;;;;;;;;;;;9.00;99.90;;;;;;5007629;28;19914;-85
2023/12/15 03:07:36;;;;;;;;;;;9.00;99.90;;;;;;5001347;28;19909;-85
2023/12/15 03:10:02;;;;;;;;;;;9.00;99.90;;;;;;5001724;28;20395;-86
2023/12/15 03:12:29;;;;;;;;;;;9.00;99.90;;;;;;5005804;28;19910;-85
2023/12/15 03:14:56;;;;;;;;;;;9.00;99.90;;;;;;5017259;28;19937;-86
2023/12/15 03:17:22;;;;;;;;;;;9.00;99.90;;;;;;5003128;28;19918;-87
2023/12/15 03:19:47;;;;;;;;;;;8.90;99.90;;;;;;5004478;28;19914;-85
2023/12/15 03:22:13;;;;;;;;;;;9.00;99.90;;;;;;5005181;28;19921;-85
2023/12/15 03:24:38;;;;;;;;;;;8.90;99.90;;;;;;5000926;28;19916;-86
2023/12/15 03:27:04;;;;;;;;;;;9.00;99.90;;;;;;5004101;28;19913;-85
2023/12/15 03:29:29;;;;;;;;;;;8.90;99.90;;;;;;5007532;28;19920;-86
2023/12/15 03:31:56;;;;;;;;;;;9.00;99.90;;;;;;5010271;28;19916;-86
2023/12/15 03:34:21;;;;;;;;;;;9.00;99.90;;;;;;5002972;28;19910;-85
2023/12/15 03:36:47;;;;;;;;;;;9.00;99.90;;;;;;5000110;28;19913;-85
2023/12/15 03:39:12;;;;;;;;;;;8.90;99.90;;;;;;5003900;28;19917;-86
2023/12/15 03:41:38;;;;;;;;;;;9.00;99.90;;;;;;5008862;28;19917;-86
2023/12/15 03:44:03;;;;;;;;;;;8.90;99.90;;;;;;5002225;28;20028;-86
2023/12/15 03:46:29;;;;;;;;;;;8.90;99.90;;;;;;5007564;28;19936;-85
2023/12/15 03:48:55;;;;;;;;;;;9.00;99.90;;;;;;5002354;28;20263;-85
2023/12/15 03:51:20;;;;;;;;;;;8.90;99.90;;;;;;5003947;28;20008;-85
2023/12/15 03:53:45;;;;;;;;;;;9.00;99.90;;;;;;5008111;28;20037;-86
2023/12/15 03:56:11;;;;;;;;;;;9.00;99.90;;;;;;5005438;28;19909;-85
2023/12/15 03:58:36;;;;;;;;;;;9.00;99.90;;;;;;5006240;28;19910;-85
2023/12/15 04:01:02;;;;;;;;;;;9.00;99.90;;;;;;5000886;28;19925;-85
2023/12/15 04:03:28;;;;;;;;;;;8.90;99.90;;;;;;5004556;28;19909;-85
2023/12/15 04:05:53;;;;;;;;;;;8.90;99.90;;;;;;5007863;28;19937;-87
2023/12/15 04:08:19;;;;;;;;;;;8.90;99.90;;;;;;5004787;28;20052;-85
2023/12/15 04:10:44;;;;;;;;;;;9.00;99.90;;;;;;5006302;28;19914;-86
2023/12/15 04:13:10;;;;;;;;;;;8.90;99.90;;;;;;5006227;28;19975;-86
2023/12/15 04:15:35;;;;;;;;;;;9.00;99.90;;;;;;5006951;28;19914;-86
2023/12/15 04:18:04;;;;;;;;;;;8.90;99.90;;;;;;5007566;28;19917;-85
2023/12/15 04:20:30;;;;;;;;;;;8.90;99.90;;;;;;5004431;28;19914;-86
2023/12/15 04:22:55;;;;;;;;;;;8.90;99.90;;;;;;5002678;28;19944;-86
2023/12/15 04:25:21;;;;;;;;;;;8.90;99.90;;;;;;5001392;28;20323;-85
2023/12/15 04:27:46;;;;;;;;;;;9.00;99.90;;;;;;5003664;28;19909;-85
2023/12/15 04:30:12;;;;;;;;;;;8.90;99.90;;;;;;5000362;28;19914;-87
2023/12/15 04:32:37;;;;;;;;;;;9.00;99.90;;;;;;5010287;28;19920;-85
2023/12/15 04:35:03;;;;;;;;;;;9.00;99.90;;;;;;5001587;28;19955;-86
2023/12/15 04:37:28;;;;;;;;;;;8.90;99.90;;;;;;5005464;28;19932;-86
2023/12/15 04:39:54;;;;;;;;;;;8.90;99.90;;;;;;4999886;28;20450;-86
2023/12/15 04:42:19;;;;;;;;;;;8.90;99.90;;;;;;5003663;28;20434;-86
2023/12/15 04:44:45;;;;;;;;;;;8.90;99.90;;;;;;5006773;28;19921;-86
2023/12/15 04:47:10;;;;;;;;;;;8.90;99.90;;;;;;5002727;28;19932;-85
2023/12/15 04:49:36;;;;;;;;;;;8.90;99.90;;;;;;5011132;28;20406;-86
2023/12/15 04:52:01;;;;;;;;;;;8.90;99.90;;;;;;5004392;28;19936;-86
2023/12/15 04:54:27;;;;;;;;;;;8.90;99.90;;;;;;5010935;28;19913;-86
2023/12/15 04:56:52;;;;;;;;;;;8.90;99.90;;;;;;5011070;28;19929;-86
2023/12/15 04:59:18;;;;;;;;;;;8.90;99.90;;;;;;5006351;28;20335;-85
2023/12/15 05:01:43;;;;;;;;;;;8.90;99.90;;;;;;5010572;28;19924;-84
2023/12/15 05:04:09;;;;;;;;;;;8.90;99.90;;;;;;5003873;28;19917;-86
2023/12/15 05:06:34;;;;;;;;;;;8.90;99.90;;;;;;5014295;28;19924;-86
2023/12/15 05:09:00;;;;;;;;;;;8.90;99.90;;;;;;5013928;28;19916;-85
2023/12/15 05:11:26;;;;;;;;;;;9.00;99.90;;;;;;5009200;28;19909;-86
2023/12/15 05:13:51;;;;;;;;;;;9.00;99.90;;;;;;5006762;28;20287;-85
2023/12/15 05:16:17;;;;;;;;;;;8.90;99.90;;;;;;4995608;28;19914;-85
2023/12/15 05:18:42;;;;;;;;;;;8.90;99.90;;;;;;5010367;28;20004;-86
2023/12/15 05:21:08;;;;;;;;;;;8.90;99.90;;;;;;5011126;28;19914;-86
2023/12/15 05:23:34;;;;;;;;;;;8.90;99.90;;;;;;5010419;28;19910;-86
2023/12/15 05:25:59;;;;;;;;;;;8.90;99.90;;;;;;5003713;28;20283;-85
2023/12/15 05:28:25;;;;;;;;;;;8.90;99.90;;;;;;5003969;28;19921;-85
2023/12/15 05:30:50;;;;;;;;;;;8.90;99.90;;;;;;5009412;28;20015;-85
2023/12/15 05:33:15;;;;;;;;;;;9.00;99.90;;;;;;5008764;28;19913;-86
2023/12/15 05:35:41;;;;;;;;;;;8.90;99.90;;;;;;5010423;28;19910;-85
2023/12/15 05:38:07;;;;;;;;;;;8.90;99.90;;;;;;5002874;28;19959;-86
2023/12/15 05:40:32;;;;;;;;;;;8.90;99.90;;;;;;5005190;28;19922;-85
2023/12/15 05:42:58;;;;;;;;;;;8.90;99.90;;;;;;5006397;28;19917;-85
2023/12/15 05:45:23;;;;;;;;;;;8.90;99.90;;;;;;5009454;28;19914;-86
2023/12/15 05:47:49;;;;;;;;;;;8.90;99.90;;;;;;5006258;28;20368;-85
2023/12/15 05:50:14;;;;;;;;;;;8.90;99.90;;;;;;5005294;28;19973;-85
2023/12/15 05:52:39;;;;;;;;;;;8.90;99.90;;;;;;5010183;28;19917;-85
2023/12/15 05:55:05;;;;;;;;;;;8.90;99.90;;;;;;5009368;28;20407;-87
2023/12/15 05:57:31;;;;;;;;;;;8.90;99.90;;;;;;5005745;28;19909;-86
2023/12/15 05:59:56;;;;;;;;;;;8.90;99.90;;;;;;5009567;28;20054;-86
2023/12/15 06:02:22;;;;;;;;;;;8.90;99.90;;;;;;5013944;28;19988;-86
2023/12/15 06:04:47;;;;;;;;;;;8.90;99.90;;;;;;5007716;28;19914;-85
2023/12/15 06:07:15;;;;;;;;;;;8.90;99.90;;;;;;5001406;28;20383;-85
2023/12/15 06:09:40;;;;;;;;;;;8.90;99.90;;;;;;5014639;28;19910;-86
2023/12/15 06:12:07;;;;;;;;;;;8.90;99.90;;;;;;5006074;28;20578;-87
2023/12/15 06:14:33;;;;;;;;;;;8.90;99.90;;;;;;5009436;28;19979;-86
2023/12/15 06:17:00;;;;;;;;;;;8.90;99.90;;;;;;5004479;28;19949;-88
2023/12/15 06:19:25;;;;;;;;;;;8.90;99.90;;;;;;5009111;28;19917;-86
2023/12/15 06:21:50;;;;;;;;;;;8.90;99.90;;;;;;5011624;28;19923;-85
2023/12/15 06:24:16;;;;;;;;;;;8.90;99.90;;;;;;5002513;28;20059;-85
2023/12/15 06:26:41;;;;;;;;;;;8.90;99.90;;;;;;5008201;28;19917;-85
2023/12/15 06:29:07;;;;;;;;;;;8.90;99.90;;;;;;5000741;28;19917;-86
2023/12/15 06:31:32;;;;;;;;;;;8.90;99.90;;;;;;5001668;28;19918;-85
2023/12/15 06:33:58;;;;;;;;;;;8.90;99.90;;;;;;5014084;28;19984;-86
2023/12/15 06:36:26;;;;;;;;;;;8.90;99.90;;;;;;5000536;28;20358;-86
2023/12/15 06:38:51;;;;;;;;;;;8.90;99.90;;;;;;5009453;28;19924;-86
2023/12/15 06:41:17;;;;;;;;;;;8.90;99.90;;;;;;5005182;28;19922;-86
2023/12/15 06:43:43;;;;;;;;;;;8.80;99.90;;;;;;5008720;28;19972;-85
2023/12/15 06:46:08;;;;;;;;;;;8.90;99.90;;;;;;5005492;28;19914;-85
2023/12/15 06:48:34;;;;;;;;;;;8.80;99.90;;;;;;5000904;28;19913;-86
2023/12/15 06:51:00;;;;;;;;;;;8.90;99.90;;;;;;5005030;28;19955;-85
2023/12/15 06:53:25;;;;;;;;;;;8.90;99.90;;;;;;5001979;28;19921;-86
2023/12/15 06:55:51;;;;;;;;;;;8.90;99.90;;;;;;5007191;28;19972;-86
2023/12/15 06:58:17;;;;;;;;;;;8.90;99.90;;;;;;5007652;28;19913;-86
2023/12/15 07:00:43;;;;;;;;;;;8.80;99.90;;;;;;5008060;28;19913;-85
2023/12/15 07:03:08;;;;;;;;;;;8.90;99.90;;;;;;5021405;28;19917;-86
2023/12/15 07:05:34;;;;;;;;;;;8.90;99.90;;;;;;5006415;28;19916;-85
2023/12/15 07:08:03;;;;;;;;;;;8.90;99.90;;;;;;5004926;28;19914;-85
2023/12/15 07:10:29;;;;;;;;;;;8.90;99.90;;;;;;5000555;28;19910;-86
2023/12/15 07:12:54;;;;;;;;;;;8.90;99.90;;;;;;5003270;28;20029;-85
2023/12/15 07:15:20;;;;;;;;;;;8.90;99.90;;;;;;5009300;28;20379;-86
2023/12/15 07:17:45;;;;;;;;;;;8.90;99.90;;;;;;5006235;28;19914;-85
2023/12/15 07:20:11;;;;;;;;;;;8.90;99.90;;;;;;5000871;28;19910;-86
2023/12/15 07:22:36;;;;;;;;;;;8.80;99.90;;;;;;5007444;28;19924;-85
2023/12/15 07:25:02;;;;;;;;;;;8.90;99.90;;;;;;5008694;28;19913;-85
2023/12/15 07:27:27;;;;;;;;;;;8.90;99.90;;;;;;5010124;28;20008;-85
2023/12/15 07:29:53;;;;;;;;;;;8.90;99.90;;;;;;5006439;28;19910;-85
2023/12/15 07:32:18;;;;;;;;;;;8.90;99.90;;;;;;5001292;28;19913;-86
2023/12/15 07:34:44;;;;;;;;;;;8.90;99.90;;;;;;5004942;28;20299;-85
2023/12/15 07:37:09;;;;;;;;;;;8.90;99.90;;;;;;5015624;28;19945;-85
2023/12/15 07:39:35;;;;;;;;;;;8.90;99.90;;;;;;5004680;28;19992;-85
2023/12/15 07:42:00;;;;;;;;;;;8.90;99.90;;;;;;5008032;28;20379;-84
2023/12/15 07:44:26;;;;;;;;;;;8.90;99.90;;;;;;5007807;28;19983;-85
2023/12/15 07:46:54;;;;;;;;;;;8.90;99.90;;;;;;5007199;28;20012;-85
2023/12/15 07:49:20;;;;;;;;;;;8.90;99.90;;;;;;5005474;28;20334;-85
2023/12/15 07:51:45;;;;;;;;;;;8.80;99.90;;;;;;5005795;28;19978;-85
2023/12/15 07:54:11;;;;;;;;;;;8.80;99.90;;;;;;5002198;28;19914;-86
2023/12/15 07:56:36;;;;;;;;;;;8.90;99.90;;;;;;5004877;28;19940;-86
2023/12/15 07:59:02;;;;;;;;;;;8.80;99.90;;;;;;5011670;28;20008;-85
2023/12/15 08:01:27;;;;;;;;;;;8.90;99.90;;;;;;5008753;28;19913;-88
2023/12/15 08:03:53;;;;;;;;;;;8.90;99.90;;;;;;5006196;28;20314;-85
2023/12/15 08:06:19;;;;;;;;;;;8.90;99.90;;;;;;5004650;28;19917;-84
2023/12/15 08:08:45;;;;;;;;;;;8.90;99.90;;;;;;5001310;28;20276;-87
2023/12/15 08:11:11;;;;;;;;;;;8.80;99.90;;;;;;5003345;28;19914;-86
2023/12/15 08:13:37;;;;;;;;;;;8.80;99.90;;;;;;5000906;28;19929;-86
2023/12/15 08:16:06;;;;;;;;;;;8.90;99.90;;;;;;5002511;28;19913;-85
2023/12/15 08:18:31;;;;;;;;;;;8.90;99.90;;;;;;5002368;28;19961;-85
2023/12/15 08:20:57;;;;;;;;;;;8.90;99.90;;;;;;5010550;28;20537;-85
2023/12/15 08:23:23;;;;;;;;;;;8.90;99.90;;;;;;5010087;28;19921;-85
2023/12/15 08:25:48;;;;;;;;;;;8.90;99.90;;;;;;5011288;28;19984;-85
2023/12/15 08:28:14;;;;;;;;;;;8.80;99.90;;;;;;5011207;28;19914;-85
2023/12/15 08:30:39;;;;;;;;;;;8.90;99.90;;;;;;5004814;28;20051;-85
2023/12/15 08:33:05;;;;;;;;;;;8.90;99.90;;;;;;5008405;28;19922;-85
2023/12/15 08:35:31;;;;;;;;;;;8.80;99.90;;;;;;5010829;28;20675;-85
2023/12/15 08:37:56;;;;;;;;;;;8.90;99.90;;;;;;5013135;28;19927;-85
2023/12/15 08:40:22;;;;;;;;;;;8.90;99.90;;;;;;5007053;28;20498;-85
2023/12/15 08:42:48;;;;;;;;;;;8.80;99.90;;;;;;5012145;28;20282;-85
2023/12/15 08:45:13;;;;;;;;;;;8.90;99.90;;;;;;5003548;28;19916;-86
2023/12/15 08:47:39;;;;;;;;;;;8.80;99.90;;;;;;5009669;28;19952;-85
2023/12/15 08:50:04;;;;;;;;;;;8.80;99.90;;;;;;5011844;28;19913;-85
2023/12/15 08:52:30;;;;;;;;;;;8.90;99.90;;;;;;5010646;28;19914;-84
2023/12/15 08:54:55;;;;;;;;;;;8.90;99.90;;;;;;5010413;28;19909;-88
2023/12/15 08:57:21;;;;;;;;;;;8.90;99.90;;;;;;5001099;28;20338;-85
2023/12/15 08:59:46;;;;;;;;;;;8.90;99.90;;;;;;5007918;28;19918;-85
2023/12/15 09:02:12;;;;;;;;;;;8.90;99.90;;;;;;5009042;28;19918;-85
2023/12/15 09:04:38;;;;;;;;;;;8.90;99.90;;;;;;5009163;28;19928;-85
2023/12/15 09:07:03;;;;;;;;;;;8.80;99.90;;;;;;5008628;28;20375;-85
2023/12/15 09:09:29;;;;;;;;;;;8.90;99.90;;;;;;5003825;28;19921;-85
2023/12/15 09:11:54;;;;;;;;;;;8.90;99.90;;;;;;5010222;28;20004;-85
2023/12/15 09:14:21;;;;;;;;;;;8.90;99.90;;;;;;5006220;28;20272;-85
2023/12/15 09:16:47;;;;;;;;;;;8.90;99.90;;;;;;5009587;28;19910;-85
2023/12/15 09:19:13;;;;;;;;;;;8.90;99.90;;;;;;5010419;28;19913;-87
2023/12/15 09:21:38;;;;;;;;;;;8.90;99.90;;;;;;5003222;28;19917;-80
2023/12/15 09:24:04;;;;;;;;;;;8.90;99.90;;;;;;5006051;28;19975;-86
2023/12/15 09:26:30;;;;;;;;;;;8.90;99.90;;;;;;5000343;28;19925;-85
2023/12/15 09:28:55;;;;;;;;;;;8.90;99.90;;;;;;5007631;28;19961;-86
2023/12/15 09:31:21;;;;;;;;;;;8.90;99.90;;;;;;4994560;28;20557;-85
2023/12/15 09:33:46;;;;;;;;;;;9.00;99.90;;;;;;5002586;28;19921;-87
2023/12/15 09:36:12;;;;;;;;;;;8.90;99.90;;;;;;5011578;28;19921;-87
2023/12/15 09:38:37;;;;;;;;;;;8.90;99.90;;;;;;5009106;28;19917;-86
2023/12/15 09:41:03;;;;;;;;;;;8.90;99.90;;;;;;5008154;28;19941;-87
2023/12/15 09:43:29;;;;;;;;;;;9.00;99.90;;;;;;5007686;28;19921;-87
2023/12/15 09:45:57;;;;;;;;;;;9.00;99.90;;;;;;5009500;28;19918;-85
2023/12/15 09:48:23;;;;;;;;;;;9.00;99.90;;;;;;5008860;28;19920;-84
2023/12/15 09:50:54;;;;;;;;;;;9.00;99.90;;;;;;5012239;28;20016;-83
2023/12/15 09:53:20;;;;;;;;;;;9.00;99.90;;;;;;5014796;28;19909;-85
2023/12/15 09:55:46;;;;;;;;;;;9.00;99.90;;;;;;5008820;28;19910;-86
2023/12/15 09:58:12;;;;;;;;;;;9.00;99.90;;;;;;5009443;28;19914;-86
2023/12/15 10:00:38;;;;;;;;;;;9.00;99.90;;;;;;5013774;28;19913;-85
2023/12/15 10:03:03;;;;;;;;;;;9.00;99.90;;;;;;5011396;28;20011;-85
2023/12/15 10:05:29;;;;;;;;;;;9.00;99.90;;;;;;5010172;28;19941;-89
2023/12/15 10:07:55;;;;;;;;;;;9.00;99.90;;;;;;5008076;28;19918;-89
2023/12/15 10:10:21;;;;;;;;;;;9.00;99.90;;;;;;5010442;28;19909;-90
2023/12/15 10:12:46;;;;;;;;;;;9.00;99.90;;;;;;5012028;28;19933;-88
2023/12/15 10:15:12;;;;;;;;;;;9.00;99.90;;;;;;5017708;28;20160;-83
2023/12/15 10:17:38;;;;;;;;;;;9.00;99.90;;;;;;5007136;28;19918;-84
2023/12/15 10:20:05;;;;;;;;;;;9.00;99.90;;;;;;4998367;28;19913;-85
2023/12/15 10:22:31;;;;;;;;;;;9.00;99.90;;;;;;5001185;28;20394;-84
2023/12/15 10:24:56;;;;;;;;;;;9.00;99.90;;;;;;4999708;28;19957;-84
2023/12/15 10:27:22;;;;;;;;;;;9.00;99.90;;;;;;5007490;28;20286;-84
2023/12/15 10:29:47;;;;;;;;;;;9.00;99.90;;;;;;5006149;28;19919;-86
2023/12/15 10:32:12;;;;;;;;;;;9.00;99.90;;;;;;5007634;28;20291;-84
2023/12/15 10:34:38;;;;;;;;;;;9.00;99.90;;;;;;5001723;28;19925;-86
2023/12/15 10:37:03;;;;;;;;;;;9.00;99.90;;;;;;5004521;28;19972;-85
2023/12/15 10:39:29;;;;;;;;;;;9.00;99.90;;;;;;5002735;28;20001;-84
2023/12/15 10:41:57;;;;;;;;;;;9.00;99.90;;;;;;5007702;28;20354;-87
2023/12/15 10:44:24;;;;;;;;;;;9.00;99.90;;;;;;5000702;28;19914;-84
2023/12/15 10:46:49;;;;;;;;;;;9.00;99.90;;;;;;5006665;28;19965;-85
2023/12/15 10:49:15;;;;;;;;;;;9.00;99.90;;;;;;5007637;28;19947;-84
2023/12/15 10:51:41;;;;;;;;;;;9.00;99.90;;;;;;5004457;28;20388;-84
2023/12/15 10:54:08;;;;;;;;;;;9.00;99.90;;;;;;5007786;28;19909;-84
2023/12/15 10:56:34;;;;;;;;;;;9.00;99.90;;;;;;5009109;28;19945;-86
2023/12/15 10:58:59;;;;;;;;;;;9.00;99.90;;;;;;5001590;28;19986;-87
2023/12/15 11:01:27;;;;;;;;;;;9.00;99.90;;;;;;5004238;28;19925;-84
2023/12/15 11:03:52;;;;;;;;;;;8.90;99.90;;;;;;5009468;28;19913;-87
2023/12/15 11:06:25;;;;;;;;;;;9.00;99.90;;;;;;5011015;28;19920;-84
2023/12/15 11:08:50;;;;;;;;;;;9.00;99.90;;;;;;5008893;28;19913;-83
2023/12/15 11:11:22;;;;;;;;;;;8.90;99.90;;;;;;5009830;28;19940;-82
2023/12/15 11:13:57;;;;;;;;;;;8.90;99.90;;;;;;5003973;28;19921;-83
2023/12/15 11:16:23;;;;;;;;;;;9.00;99.90;;;;;;5006685;28;19917;-82
2023/12/15 11:18:49;;;;;;;;;;;9.00;99.90;;;;;;5009357;28;19932;-83
2023/12/15 11:21:15;;;;;;;;;;;8.90;99.90;;;;;;5007988;28;19971;-82
2023/12/15 11:24:00;;;;;;;;;;;9.00;99.90;;;;;;5008050;28;20314;-82
2023/12/15 11:26:30;;;;;;;;;;;9.00;99.90;;;;;;5002258;28;20299;-80
2023/12/15 11:28:56;;;;;;;;;;;9.00;99.90;;;;;;5005611;28;19928;-81
2023/12/15 11:31:28;;;;;;;;;;;8.90;99.90;;;;;;5005536;28;19913;-83
2023/12/15 11:33:54;;;;;;;;;;;9.00;99.90;;;;;;5004572;28;19917;-80
2023/12/15 11:36:20;;;;;;;;;;;9.00;99.90;;;;;;5005953;28;19914;-80
2023/12/15 11:38:48;;;;;;;;;;;9.00;99.90;;;;;;5001061;28;20399;-81
2023/12/15 11:41:16;;;;;;;;;;;8.90;99.90;;;;;;5004301;28;20391;-75
2023/12/15 11:43:43;;;;;;;;;;;11.60;99.90;;;;;;5010010;28;19913;-75
2023/12/15 11:46:10;;;;;;;;;;;12.80;99.90;;;;;;5014308;28;19924;-75
2023/12/15 11:48:36;;;;;;;;;;;13.10;99.90;;;;;;4999250;28;20390;-75
2023/12/15 11:51:02;;;;;;;;;;;13.30;99.90;;;;;;5008300;28;19918;-75
2023/12/15 11:53:28;;;;;;;;;;;13.40;99.90;;;;;;5005949;28;20345;-75
2023/12/15 11:55:55;;;;;;;;;;;13.40;99.90;;;;;;5013048;28;19979;-75
2023/12/15 11:58:22;;;;;;;;;;;13.40;99.90;;;;;;5009279;28;19910;-75
2023/12/15 12:00:47;;;;;;;;;;;13.40;99.90;;;;;;5012710;28;19921;-74
2023/12/15 12:03:14;;;;;;;;;;;13.40;99.90;;;;;;5010882;28;19910;-75
2023/12/15 12:05:41;;;;;;;;;;;13.40;99.90;;;;;;5012555;28;19949;-75
2023/12/15 12:08:08;;;;;;;;;;;13.40;99.90;;;;;;5012724;28;19921;-75
2023/12/15 12:10:37;;;;;;;;;;;13.40;99.90;;;;;;5011452;28;19916;-75
2023/12/15 12:13:06;;;;;;;;;;;13.40;99.90;;;;;;5010214;28;19913;-74
2023/12/15 12:15:32;;;;;;;;;;;13.40;99.90;;;;;;5007405;28;19913;-74
2023/12/15 12:17:57;;;;;;;;;;;13.40;99.90;;;;;;5012341;28;19909;-75
2023/12/15 12:20:29;;;;;;;;;;;13.40;99.90;;;;;;5016803;28;20375;-74
2023/12/15 12:22:55;;;;;;;;;;;13.40;99.90;;;;;;5009931;28;19920;-74
2023/12/15 12:25:20;;;;;;;;;;;13.40;99.90;;;;;;5012346;28;19924;-76
2023/12/15 12:27:46;;;;;;;;;;;13.40;99.90;;;;;;5010920;28;19913;-76
2023/12/15 12:30:13;;;;;;;;;;;13.40;99.90;;;;;;5009881;28;20006;-74
2023/12/15 12:32:39;;;;;;;;;;;13.40;99.90;;;;;;5008365;28;20379;-74
2023/12/15 12:35:05;;;;;;;;;;;13.40;99.90;;;;;;5011069;28;20014;-75
2023/12/15 12:37:31;;;;;;;;;;;13.40;99.90;;;;;;5003773;28;20479;-74
2023/12/15 12:39:57;;;;;;;;;;;13.40;99.90;;;;;;5013009;28;19975;-74
2023/12/15 12:42:23;;;;;;;;;;;13.40;99.90;;;;;;5011185;28;19918;-75
2023/12/15 12:44:50;;;;;;;;;;;13.40;99.90;;;;;;5012016;28;19917;-74
2023/12/15 12:47:15;;;;;;;;;;;13.40;99.90;;;;;;5011025;28;19913;-74
2023/12/15 12:49:41;;;;;;;;;;;13.40;99.90;;;;;;5011727;28;20406;-74
2023/12/15 12:52:07;;;;;;;;;;;13.40;99.90;;;;;;5009030;28;19996;-74
2023/12/15 12:54:32;;;;;;;;;;;13.40;99.90;;;;;;5012309;28;20014;-74
2023/12/15 12:56:58;;;;;;;;;;;13.40;99.90;;;;;;5011735;28;19909;-75
2023/12/15 12:59:23;;;;;;;;;;;13.40;99.90;;;;;;5013592;28;19968;-75
2023/12/15 13:01:49;;;;;;;;;;;13.40;99.90;;;;;;5015496;28;20004;-74
2023/12/15 13:04:14;;;;;;;;;;;13.50;99.90;;;;;;5012721;28;20528;-76
2023/12/15 13:06:40;;;;;;;;;;;13.40;99.90;;;;;;5011087;28;19909;-75
2023/12/15 13:09:05;;;;;;;;;;;13.50;99.90;;;;;;5010839;28;20000;-74
2023/12/15 13:11:31;;;;;;;;;;;13.50;99.90;;;;;;5011391;28;19913;-74
2023/12/15 13:13:56;;;;;;;;;;;13.50;99.90;;;;;;5011530;28;19924;-74
2023/12/15 13:16:22;;;;;;;;;;;13.50;99.90;;;;;;5014814;28;19953;-75
2023/12/15 13:18:48;;;;;;;;;;;13.50;99.90;;;;;;5010218;28;19914;-75
2023/12/15 13:21:14;;;;;;;;;;;13.50;99.90;;;;;;5009057;28;20298;-74
2023/12/15 13:23:39;;;;;;;;;;;13.50;99.90;;;;;;5012928;28;19914;-75
2023/12/15 13:26:05;;;;;;;;;;;13.50;99.90;;;;;;5010733;28;19960;-74
2023/12/15 13:28:35;;;;;;;;;;;13.50;99.90;;;;;;5013932;28;19909;-76
2023/12/15 13:31:01;;;;;;;;;;;13.40;99.90;;;;;;5008224;28;19956;-77
2023/12/15 13:33:29;;;;;;;;;;;13.40;99.90;;;;;;5008820;28;19918;-75
2023/12/15 13:35:55;;;;;;;;;;;13.50;99.90;;;;;;5010042;28;19913;-75
2023/12/15 13:38:21;;;;;;;;;;;13.40;99.90;;;;;;5005621;28;19914;-76
2023/12/15 13:40:46;;;;;;;;;;;13.50;99.90;;;;;;5005655;28;19947;-75
2023/12/15 13:43:12;;;;;;;;;;;13.50;99.90;;;;;;5008934;28;19921;-76
2023/12/15 13:45:37;;;;;;;;;;;13.50;99.90;;;;;;5014873;28;20019;-75
2023/12/15 13:48:04;;;;;;;;;;;13.50;99.90;;;;;;5011102;28;19914;-75
2023/12/15 13:50:30;;;;;;;;;;;13.50;99.90;;;;;;5010216;28;19936;-76
2023/12/15 13:52:57;;;;;;;;;;;13.50;99.90;;;;;;5006506;28;20363;-76
2023/12/15 13:55:22;;;;;;;;;;;13.50;99.90;;;;;;5010379;28;20330;-75
2023/12/15 13:57:50;;;;;;;;;;;13.50;99.90;;;;;;5006999;28;19909;-75
2023/12/15 14:00:16;;;;;;;;;;;13.40;99.90;;;;;;5011042;28;20000;-76
2023/12/15 14:02:42;;;;;;;;;;;13.40;99.90;;;;;;5008174;28;20056;-76
2023/12/15 14:05:07;;;;;;;;;;;13.50;99.90;;;;;;5008727;28;19966;-76
2023/12/15 14:07:33;;;;;;;;;;;13.50;99.90;;;;;;5010792;28;19913;-76
2023/12/15 14:09:58;;;;;;;;;;;13.70;99.90;;;;;;5008658;28;19917;-76
2023/12/15 14:12:24;;;;;;;;;;;13.70;99.90;;;;;;5008161;28;19917;-76
2023/12/15 14:14:49;;;;;;;;;;;13.80;99.90;;;;;;5009555;28;19941;-75
2023/12/15 14:17:15;;;;;;;;;;;13.70;99.90;;;;;;5008798;28;19921;-86
2023/12/15 14:19:41;;;;;;;;;;;13.70;99.90;;;;;;5014557;28;20347;-82